sensor_id;sensor_type;location;lat;lon;timestamp;P1;durP1;ratioP1;P2;durP2;ratioP2
18046;SDS011;9148;51.454;13.862;2022-10-17T00:01:09;1.27;;;0.90;;
18046;SDS011;9148;51.454;13.862;2022-10-17T00:03:36;2.57;;;1.33;;
18046;SDS011;9148;51.454;13.862;2022-10-17T00:06:06;2.47;;;1.67;;
18046;SDS011;9148;51.454;13.862;2022-10-17T00:08:38;1.20;;;1.10;;
18046;SDS011;9148;51.454;13.862;2022-10-17T00:11:11;2.30;;;1.10;;
18046;SDS011;9148;51.454;13.862;2022-10-17T00:13:43;1.50;;;1.40;;
18046;SDS011;9148;51.454;13.862;2022-10-17T00:16:09;2.47;;;1.30;;
18046;SDS011;9148;51.454;13.862;2022-10-17T00:18:35;7.50;;;1.80;;
18046;SDS011;9148;51.454;13.862;2022-10-17T00:21:01;1.07;;;0.97;;
18046;SDS011;9148;51.454;13.862;2022-10-17T00:23:27;0.87;;;0.87;;
18046;SDS011;9148;51.454;13.862;2022-10-17T00:26:00;1.17;;;0.87;;
18046;SDS011;9148;51.454;13.862;2022-10-17T00:28:29;3.03;;;1.83;;
18046;SDS011;9148;51.454;13.862;2022-10-17T00:30:57;1.97;;;1.43;;
18046;SDS011;9148;51.454;13.862;2022-10-17T00:33:26;3.70;;;1.63;;
18046;SDS011;9148;51.454;13.862;2022-10-17T00:38:38;1.97;;;1.60;;
18046;SDS011;9148;51.454;13.862;2022-10-17T00:41:09;1.40;;;1.30;;
18046;SDS011;9148;51.454;13.862;2022-10-17T00:43:53;3.03;;;1.33;;
18046;SDS011;9148;51.454;13.862;2022-10-17T00:46:31;1.23;;;1.00;;
18046;SDS011;9148;51.454;13.862;2022-10-17T00:49:02;1.27;;;1.20;;
18046;SDS011;9148;51.454;13.862;2022-10-17T00:51:42;1.23;;;1.13;;
18046;SDS011;9148;51.454;13.862;2022-10-17T00:54:13;1.10;;;1.00;;
18046;SDS011;9148;51.454;13.862;2022-10-17T00:56:40;1.60;;;1.10;;
18046;SDS011;9148;51.454;13.862;2022-10-17T00:59:08;1.30;;;1.20;;
18046;SDS011;9148;51.454;13.862;2022-10-17T01:01:36;1.37;;;1.13;;
18046;SDS011;9148;51.454;13.862;2022-10-17T01:04:04;1.43;;;1.10;;
18046;SDS011;9148;51.454;13.862;2022-10-17T01:06:30;1.63;;;1.00;;
18046;SDS011;9148;51.454;13.862;2022-10-17T01:08:55;1.30;;;1.10;;
18046;SDS011;9148;51.454;13.862;2022-10-17T01:11:38;1.33;;;1.00;;
18046;SDS011;9148;51.454;13.862;2022-10-17T01:14:35;6.33;;;1.23;;
18046;SDS011;9148;51.454;13.862;2022-10-17T01:21:15;1.43;;;1.03;;
18046;SDS011;9148;51.454;13.862;2022-10-17T01:27:08;1.20;;;1.10;;
18046;SDS011;9148;51.454;13.862;2022-10-17T01:32:48;1.03;;;0.93;;
18046;SDS011;9148;51.454;13.862;2022-10-17T01:35:46;1.43;;;1.23;;
18046;SDS011;9148;51.454;13.862;2022-10-17T01:38:21;1.80;;;1.30;;
18046;SDS011;9148;51.454;13.862;2022-10-17T01:41:26;1.50;;;1.07;;
18046;SDS011;9148;51.454;13.862;2022-10-17T01:44:12;1.27;;;1.07;;
18046;SDS011;9148;51.454;13.862;2022-10-17T01:46:45;1.03;;;0.90;;
18046;SDS011;9148;51.454;13.862;2022-10-17T01:49:16;0.77;;;0.73;;
18046;SDS011;9148;51.454;13.862;2022-10-17T01:51:48;1.23;;;0.90;;
18046;SDS011;9148;51.454;13.862;2022-10-17T01:56:48;0.80;;;0.60;;
18046;SDS011;9148;51.454;13.862;2022-10-17T01:59:21;0.90;;;0.87;;
18046;SDS011;9148;51.454;13.862;2022-10-17T02:01:52;0.70;;;0.70;;
18046;SDS011;9148;51.454;13.862;2022-10-17T02:04:19;1.37;;;0.87;;
18046;SDS011;9148;51.454;13.862;2022-10-17T02:06:46;1.73;;;1.47;;
18046;SDS011;9148;51.454;13.862;2022-10-17T02:09:15;1.10;;;0.93;;
18046;SDS011;9148;51.454;13.862;2022-10-17T02:11:54;2.13;;;1.10;;
18046;SDS011;9148;51.454;13.862;2022-10-17T02:20:59;0.90;;;0.83;;
18046;SDS011;9148;51.454;13.862;2022-10-17T02:23:36;1.00;;;0.97;;
18046;SDS011;9148;51.454;13.862;2022-10-17T02:26:25;2.10;;;1.33;;
18046;SDS011;9148;51.454;13.862;2022-10-17T02:29:14;0.97;;;0.87;;
18046;SDS011;9148;51.454;13.862;2022-10-17T02:34:33;0.90;;;0.90;;
18046;SDS011;9148;51.454;13.862;2022-10-17T02:37:07;1.63;;;1.43;;
18046;SDS011;9148;51.454;13.862;2022-10-17T02:39:35;1.20;;;1.10;;
18046;SDS011;9148;51.454;13.862;2022-10-17T02:42:04;1.00;;;1.00;;
18046;SDS011;9148;51.454;13.862;2022-10-17T02:44:33;1.60;;;1.50;;
18046;SDS011;9148;51.454;13.862;2022-10-17T02:47:10;1.63;;;1.07;;
18046;SDS011;9148;51.454;13.862;2022-10-17T02:49:49;1.63;;;1.43;;
18046;SDS011;9148;51.454;13.862;2022-10-17T02:52:33;1.43;;;1.17;;
18046;SDS011;9148;51.454;13.862;2022-10-17T02:55:11;1.00;;;0.77;;
18046;SDS011;9148;51.454;13.862;2022-10-17T02:57:40;1.27;;;0.80;;
18046;SDS011;9148;51.454;13.862;2022-10-17T03:00:12;1.20;;;1.10;;
18046;SDS011;9148;51.454;13.862;2022-10-17T03:02:40;5.37;;;1.40;;
18046;SDS011;9148;51.454;13.862;2022-10-17T03:05:13;1.73;;;1.20;;
18046;SDS011;9148;51.454;13.862;2022-10-17T03:07:44;1.70;;;0.83;;
18046;SDS011;9148;51.454;13.862;2022-10-17T03:10:10;2.47;;;0.93;;
18046;SDS011;9148;51.454;13.862;2022-10-17T03:12:35;1.40;;;1.10;;
18046;SDS011;9148;51.454;13.862;2022-10-17T03:15:01;0.73;;;0.73;;
18046;SDS011;9148;51.454;13.862;2022-10-17T03:17:28;3.40;;;1.57;;
18046;SDS011;9148;51.454;13.862;2022-10-17T03:19:54;2.80;;;0.87;;
18046;SDS011;9148;51.454;13.862;2022-10-17T03:22:20;1.13;;;0.90;;
18046;SDS011;9148;51.454;13.862;2022-10-17T03:24:46;4.47;;;1.40;;
18046;SDS011;9148;51.454;13.862;2022-10-17T03:27:11;1.60;;;1.07;;
18046;SDS011;9148;51.454;13.862;2022-10-17T03:29:37;2.27;;;1.33;;
18046;SDS011;9148;51.454;13.862;2022-10-17T03:32:03;1.27;;;1.17;;
18046;SDS011;9148;51.454;13.862;2022-10-17T03:34:29;1.40;;;1.30;;
18046;SDS011;9148;51.454;13.862;2022-10-17T03:36:54;1.37;;;1.27;;
18046;SDS011;9148;51.454;13.862;2022-10-17T03:39:20;2.63;;;1.37;;
18046;SDS011;9148;51.454;13.862;2022-10-17T03:41:46;2.47;;;0.97;;
18046;SDS011;9148;51.454;13.862;2022-10-17T03:44:11;3.27;;;1.33;;
18046;SDS011;9148;51.454;13.862;2022-10-17T03:46:37;1.33;;;0.93;;
18046;SDS011;9148;51.454;13.862;2022-10-17T03:49:03;1.50;;;1.33;;
18046;SDS011;9148;51.454;13.862;2022-10-17T03:51:29;1.37;;;0.80;;
18046;SDS011;9148;51.454;13.862;2022-10-17T03:53:56;1.17;;;1.17;;
18046;SDS011;9148;51.454;13.862;2022-10-17T03:56:23;1.30;;;1.20;;
18046;SDS011;9148;51.454;13.862;2022-10-17T03:58:49;1.10;;;0.90;;
18046;SDS011;9148;51.454;13.862;2022-10-17T04:01:15;1.70;;;1.23;;
18046;SDS011;9148;51.454;13.862;2022-10-17T04:03:42;1.50;;;1.30;;
18046;SDS011;9148;51.454;13.862;2022-10-17T04:06:12;1.97;;;1.33;;
18046;SDS011;9148;51.454;13.862;2022-10-17T04:08:38;2.97;;;1.67;;
18046;SDS011;9148;51.454;13.862;2022-10-17T04:11:05;1.90;;;1.40;;
18046;SDS011;9148;51.454;13.862;2022-10-17T04:13:33;1.13;;;0.93;;
18046;SDS011;9148;51.454;13.862;2022-10-17T04:16:00;0.80;;;0.80;;
18046;SDS011;9148;51.454;13.862;2022-10-17T04:18:36;0.90;;;0.90;;
18046;SDS011;9148;51.454;13.862;2022-10-17T04:21:03;2.10;;;1.67;;
18046;SDS011;9148;51.454;13.862;2022-10-17T04:23:29;2.93;;;1.33;;
18046;SDS011;9148;51.454;13.862;2022-10-17T04:25:56;1.17;;;1.07;;
18046;SDS011;9148;51.454;13.862;2022-10-17T04:28:23;1.33;;;1.07;;
18046;SDS011;9148;51.454;13.862;2022-10-17T04:30:56;2.17;;;1.63;;
18046;SDS011;9148;51.454;13.862;2022-10-17T04:33:31;1.70;;;1.30;;
18046;SDS011;9148;51.454;13.862;2022-10-17T04:35:59;1.03;;;0.80;;
18046;SDS011;9148;51.454;13.862;2022-10-17T04:38:27;1.57;;;1.10;;
18046;SDS011;9148;51.454;13.862;2022-10-17T04:40:56;2.30;;;1.47;;
18046;SDS011;9148;51.454;13.862;2022-10-17T04:43:27;1.47;;;1.37;;
18046;SDS011;9148;51.454;13.862;2022-10-17T04:45:55;1.23;;;1.13;;
18046;SDS011;9148;51.454;13.862;2022-10-17T04:48:22;1.97;;;1.77;;
18046;SDS011;9148;51.454;13.862;2022-10-17T04:51:01;1.13;;;0.77;;
18046;SDS011;9148;51.454;13.862;2022-10-17T04:53:31;1.83;;;1.70;;
18046;SDS011;9148;51.454;13.862;2022-10-17T04:55:58;1.23;;;1.10;;
18046;SDS011;9148;51.454;13.862;2022-10-17T04:58:24;1.60;;;1.50;;
18046;SDS011;9148;51.454;13.862;2022-10-17T05:00:52;2.73;;;1.30;;
18046;SDS011;9148;51.454;13.862;2022-10-17T05:03:18;3.63;;;1.10;;
18046;SDS011;9148;51.454;13.862;2022-10-17T05:05:44;1.33;;;1.17;;
18046;SDS011;9148;51.454;13.862;2022-10-17T05:08:10;1.83;;;1.70;;
18046;SDS011;9148;51.454;13.862;2022-10-17T05:10:37;2.63;;;1.53;;
18046;SDS011;9148;51.454;13.862;2022-10-17T05:13:08;3.73;;;1.77;;
18046;SDS011;9148;51.454;13.862;2022-10-17T05:15:34;2.10;;;1.90;;
18046;SDS011;9148;51.454;13.862;2022-10-17T05:18:01;2.83;;;1.27;;
18046;SDS011;9148;51.454;13.862;2022-10-17T05:20:27;2.73;;;1.97;;
18046;SDS011;9148;51.454;13.862;2022-10-17T05:22:53;1.67;;;1.30;;
18046;SDS011;9148;51.454;13.862;2022-10-17T05:25:18;2.10;;;1.43;;
18046;SDS011;9148;51.454;13.862;2022-10-17T05:27:44;2.07;;;1.67;;
18046;SDS011;9148;51.454;13.862;2022-10-17T05:30:10;1.63;;;1.53;;
18046;SDS011;9148;51.454;13.862;2022-10-17T05:32:37;3.17;;;1.60;;
18046;SDS011;9148;51.454;13.862;2022-10-17T05:35:03;2.50;;;1.97;;
18046;SDS011;9148;51.454;13.862;2022-10-17T05:37:29;2.17;;;1.57;;
18046;SDS011;9148;51.454;13.862;2022-10-17T05:39:56;1.90;;;1.80;;
18046;SDS011;9148;51.454;13.862;2022-10-17T05:42:22;1.90;;;1.73;;
18046;SDS011;9148;51.454;13.862;2022-10-17T05:44:48;2.20;;;2.00;;
18046;SDS011;9148;51.454;13.862;2022-10-17T05:47:13;1.90;;;1.50;;
18046;SDS011;9148;51.454;13.862;2022-10-17T05:49:39;1.40;;;1.30;;
18046;SDS011;9148;51.454;13.862;2022-10-17T05:52:05;2.77;;;1.87;;
18046;SDS011;9148;51.454;13.862;2022-10-17T05:54:30;2.03;;;1.87;;
18046;SDS011;9148;51.454;13.862;2022-10-17T05:56:56;3.43;;;2.50;;
18046;SDS011;9148;51.454;13.862;2022-10-17T05:59:25;3.40;;;3.10;;
18046;SDS011;9148;51.454;13.862;2022-10-17T06:01:51;6.90;;;3.20;;
18046;SDS011;9148;51.454;13.862;2022-10-17T06:04:18;3.37;;;2.37;;
18046;SDS011;9148;51.454;13.862;2022-10-17T06:06:44;4.53;;;3.20;;
18046;SDS011;9148;51.454;13.862;2022-10-17T06:09:10;4.10;;;3.80;;
18046;SDS011;9148;51.454;13.862;2022-10-17T06:11:36;5.27;;;4.10;;
18046;SDS011;9148;51.454;13.862;2022-10-17T06:14:02;5.73;;;4.27;;
18046;SDS011;9148;51.454;13.862;2022-10-17T06:16:29;6.37;;;4.57;;
18046;SDS011;9148;51.454;13.862;2022-10-17T06:18:55;3.50;;;3.20;;
18046;SDS011;9148;51.454;13.862;2022-10-17T06:21:21;6.17;;;3.13;;
18046;SDS011;9148;51.454;13.862;2022-10-17T06:23:50;5.03;;;3.60;;
18046;SDS011;9148;51.454;13.862;2022-10-17T06:26:16;4.93;;;3.93;;
18046;SDS011;9148;51.454;13.862;2022-10-17T06:28:42;8.67;;;3.97;;
18046;SDS011;9148;51.454;13.862;2022-10-17T06:31:12;8.13;;;4.83;;
18046;SDS011;9148;51.454;13.862;2022-10-17T06:33:40;8.33;;;4.70;;
18046;SDS011;9148;51.454;13.862;2022-10-17T06:36:07;7.13;;;5.17;;
18046;SDS011;9148;51.454;13.862;2022-10-17T06:38:35;6.70;;;5.07;;
18046;SDS011;9148;51.454;13.862;2022-10-17T06:41:11;11.83;;;6.97;;
18046;SDS011;9148;51.454;13.862;2022-10-17T06:43:39;10.57;;;7.47;;
18046;SDS011;9148;51.454;13.862;2022-10-17T06:46:13;11.30;;;8.63;;
18046;SDS011;9148;51.454;13.862;2022-10-17T06:48:41;13.90;;;9.23;;
18046;SDS011;9148;51.454;13.862;2022-10-17T06:51:07;8.90;;;7.97;;
18046;SDS011;9148;51.454;13.862;2022-10-17T06:53:35;11.15;;;8.15;;
18046;SDS011;9148;51.454;13.862;2022-10-17T06:56:02;14.60;;;10.43;;
18046;SDS011;9148;51.454;13.862;2022-10-17T06:58:29;11.95;;;8.68;;
18046;SDS011;9148;51.454;13.862;2022-10-17T07:00:58;13.20;;;8.18;;
18046;SDS011;9148;51.454;13.862;2022-10-17T07:03:29;11.73;;;9.25;;
18046;SDS011;9148;51.454;13.862;2022-10-17T07:05:55;14.52;;;10.57;;
18046;SDS011;9148;51.454;13.862;2022-10-17T07:08:22;22.08;;;12.73;;
18046;SDS011;9148;51.454;13.862;2022-10-17T07:10:48;20.52;;;10.93;;
18046;SDS011;9148;51.454;13.862;2022-10-17T07:13:14;13.90;;;8.77;;
18046;SDS011;9148;51.454;13.862;2022-10-17T07:15:41;13.57;;;10.25;;
18046;SDS011;9148;51.454;13.862;2022-10-17T07:18:06;16.17;;;11.00;;
18046;SDS011;9148;51.454;13.862;2022-10-17T07:20:32;13.32;;;9.52;;
18046;SDS011;9148;51.454;13.862;2022-10-17T07:22:58;16.38;;;8.95;;
18046;SDS011;9148;51.454;13.862;2022-10-17T07:25:24;19.38;;;9.68;;
18046;SDS011;9148;51.454;13.862;2022-10-17T07:27:50;13.52;;;7.68;;
18046;SDS011;9148;51.454;13.862;2022-10-17T07:30:17;10.93;;;9.07;;
18046;SDS011;9148;51.454;13.862;2022-10-17T07:32:43;16.73;;;8.88;;
18046;SDS011;9148;51.454;13.862;2022-10-17T07:35:10;9.32;;;6.65;;
18046;SDS011;9148;51.454;13.862;2022-10-17T07:37:37;11.30;;;7.43;;
18046;SDS011;9148;51.454;13.862;2022-10-17T07:40:03;8.45;;;6.63;;
18046;SDS011;9148;51.454;13.862;2022-10-17T07:42:40;9.52;;;6.10;;
18046;SDS011;9148;51.454;13.862;2022-10-17T07:45:05;13.30;;;7.75;;
18046;SDS011;9148;51.454;13.862;2022-10-17T07:47:31;11.85;;;6.65;;
18046;SDS011;9148;51.454;13.862;2022-10-17T07:49:59;12.15;;;7.28;;
18046;SDS011;9148;51.454;13.862;2022-10-17T07:52:26;11.02;;;7.00;;
18046;SDS011;9148;51.454;13.862;2022-10-17T07:54:52;8.48;;;6.38;;
18046;SDS011;9148;51.454;13.862;2022-10-17T07:57:17;9.00;;;7.40;;
18046;SDS011;9148;51.454;13.862;2022-10-17T07:59:43;9.45;;;6.75;;
18046;SDS011;9148;51.454;13.862;2022-10-17T08:02:42;8.35;;;6.25;;
18046;SDS011;9148;51.454;13.862;2022-10-17T08:05:01;12.93;;;6.85;;
18046;SDS011;9148;51.454;13.862;2022-10-17T08:07:26;7.70;;;5.97;;
18046;SDS011;9148;51.454;13.862;2022-10-17T08:09:54;8.95;;;6.03;;
18046;SDS011;9148;51.454;13.862;2022-10-17T08:12:19;8.98;;;6.00;;
18046;SDS011;9148;51.454;13.862;2022-10-17T08:14:45;12.20;;;6.85;;
18046;SDS011;9148;51.454;13.862;2022-10-17T08:17:12;13.65;;;6.07;;
18046;SDS011;9148;51.454;13.862;2022-10-17T08:19:38;12.63;;;7.35;;
18046;SDS011;9148;51.454;13.862;2022-10-17T08:22:04;10.98;;;6.55;;
18046;SDS011;9148;51.454;13.862;2022-10-17T08:24:31;7.93;;;6.18;;
18046;SDS011;9148;51.454;13.862;2022-10-17T08:26:56;7.00;;;6.30;;
18046;SDS011;9148;51.454;13.862;2022-10-17T08:29:24;13.18;;;7.85;;
18046;SDS011;9148;51.454;13.862;2022-10-17T08:31:50;11.38;;;7.93;;
18046;SDS011;9148;51.454;13.862;2022-10-17T08:34:16;8.77;;;6.95;;
18046;SDS011;9148;51.454;13.862;2022-10-17T08:36:42;8.10;;;6.97;;
18046;SDS011;9148;51.454;13.862;2022-10-17T08:39:08;10.85;;;6.90;;
18046;SDS011;9148;51.454;13.862;2022-10-17T08:47:18;7.50;;;5.38;;
18046;SDS011;9148;51.454;13.862;2022-10-17T08:49:54;12.70;;;5.20;;
18046;SDS011;9148;51.454;13.862;2022-10-17T08:55:14;7.05;;;4.78;;
18046;SDS011;9148;51.454;13.862;2022-10-17T08:57:47;9.32;;;6.30;;
18046;SDS011;9148;51.454;13.862;2022-10-17T09:00:14;7.88;;;5.70;;
18046;SDS011;9148;51.454;13.862;2022-10-17T09:02:47;9.23;;;6.07;;
18046;SDS011;9148;51.454;13.862;2022-10-17T09:05:26;8.10;;;5.22;;
18046;SDS011;9148;51.454;13.862;2022-10-17T09:10:57;7.82;;;5.35;;
18046;SDS011;9148;51.454;13.862;2022-10-17T09:19:36;6.40;;;5.20;;
18046;SDS011;9148;51.454;13.862;2022-10-17T09:22:10;9.85;;;6.50;;
18046;SDS011;9148;51.454;13.862;2022-10-17T09:24:56;7.97;;;5.28;;
18046;SDS011;9148;51.454;13.862;2022-10-17T09:27:40;7.70;;;5.63;;
18046;SDS011;9148;51.454;13.862;2022-10-17T09:30:33;6.88;;;5.22;;
18046;SDS011;9148;51.454;13.862;2022-10-17T09:35:45;7.38;;;5.55;;
18046;SDS011;9148;51.454;13.862;2022-10-17T09:38:14;8.68;;;6.07;;
18046;SDS011;9148;51.454;13.862;2022-10-17T09:40:53;8.13;;;5.65;;
18046;SDS011;9148;51.454;13.862;2022-10-17T09:43:22;6.38;;;4.95;;
18046;SDS011;9148;51.454;13.862;2022-10-17T09:45:57;8.57;;;5.47;;
18046;SDS011;9148;51.454;13.862;2022-10-17T09:48:39;7.43;;;4.45;;
18046;SDS011;9148;51.454;13.862;2022-10-17T09:51:10;7.15;;;5.22;;
18046;SDS011;9148;51.454;13.862;2022-10-17T09:53:38;8.43;;;5.40;;
18046;SDS011;9148;51.454;13.862;2022-10-17T09:56:11;7.75;;;5.32;;
18046;SDS011;9148;51.454;13.862;2022-10-17T10:01:14;6.30;;;4.70;;
18046;SDS011;9148;51.454;13.862;2022-10-17T10:03:47;5.75;;;4.05;;
18046;SDS011;9148;51.454;13.862;2022-10-17T10:06:33;6.90;;;4.40;;
18046;SDS011;9148;51.454;13.862;2022-10-17T10:08:59;7.07;;;5.18;;
18046;SDS011;9148;51.454;13.862;2022-10-17T10:11:45;7.20;;;4.70;;
18046;SDS011;9148;51.454;13.862;2022-10-17T10:16:52;7.35;;;4.45;;
18046;SDS011;9148;51.454;13.862;2022-10-17T10:19:26;8.18;;;4.20;;
18046;SDS011;9148;51.454;13.862;2022-10-17T10:22:05;5.03;;;3.88;;
18046;SDS011;9148;51.454;13.862;2022-10-17T10:24:40;4.60;;;3.35;;
18046;SDS011;9148;51.454;13.862;2022-10-17T10:27:09;5.40;;;4.05;;
18046;SDS011;9148;51.454;13.862;2022-10-17T10:29:41;4.63;;;3.90;;
18046;SDS011;9148;51.454;13.862;2022-10-17T10:35:00;9.00;;;3.75;;
18046;SDS011;9148;51.454;13.862;2022-10-17T10:37:43;3.17;;;2.90;;
18046;SDS011;9148;51.454;13.862;2022-10-17T10:42:50;6.82;;;3.33;;
18046;SDS011;9148;51.454;13.862;2022-10-17T10:45:26;5.32;;;3.25;;
18046;SDS011;9148;51.454;13.862;2022-10-17T10:48:23;8.70;;;3.60;;
18046;SDS011;9148;51.454;13.862;2022-10-17T10:50:57;6.43;;;4.60;;
18046;SDS011;9148;51.454;13.862;2022-10-17T10:53:32;4.85;;;3.75;;
18046;SDS011;9148;51.454;13.862;2022-10-17T10:59:04;6.60;;;4.03;;
18046;SDS011;9148;51.454;13.862;2022-10-17T11:01:55;3.88;;;3.20;;
18046;SDS011;9148;51.454;13.862;2022-10-17T11:07:21;6.47;;;3.00;;
18046;SDS011;9148;51.454;13.862;2022-10-17T11:15:43;4.25;;;2.85;;
18046;SDS011;9148;51.454;13.862;2022-10-17T11:18:23;5.32;;;3.83;;
18046;SDS011;9148;51.454;13.862;2022-10-17T11:21:24;4.45;;;3.45;;
18046;SDS011;9148;51.454;13.862;2022-10-17T11:27:02;4.68;;;3.50;;
18046;SDS011;9148;51.454;13.862;2022-10-17T11:29:31;5.80;;;3.30;;
18046;SDS011;9148;51.454;13.862;2022-10-17T11:32:06;5.10;;;2.97;;
18046;SDS011;9148;51.454;13.862;2022-10-17T11:34:55;3.38;;;2.40;;
18046;SDS011;9148;51.454;13.862;2022-10-17T11:37:38;12.32;;;3.72;;
18046;SDS011;9148;51.454;13.862;2022-10-17T11:40:17;5.50;;;3.20;;
18046;SDS011;9148;51.454;13.862;2022-10-17T11:43:04;3.50;;;2.78;;
18046;SDS011;9148;51.454;13.862;2022-10-17T11:45:43;4.50;;;3.08;;
18046;SDS011;9148;51.454;13.862;2022-10-17T11:48:20;7.63;;;3.13;;
18046;SDS011;9148;51.454;13.862;2022-10-17T11:51:08;4.40;;;3.60;;
18046;SDS011;9148;51.454;13.862;2022-10-17T11:56:40;4.55;;;2.97;;
18046;SDS011;9148;51.454;13.862;2022-10-17T11:59:23;5.00;;;2.83;;
18046;SDS011;9148;51.454;13.862;2022-10-17T12:02:04;5.22;;;3.13;;
18046;SDS011;9148;51.454;13.862;2022-10-17T12:04:54;5.00;;;3.45;;
18046;SDS011;9148;51.454;13.862;2022-10-17T12:15:52;5.07;;;3.17;;
18046;SDS011;9148;51.454;13.862;2022-10-17T12:18:25;3.83;;;2.67;;
18046;SDS011;9148;51.454;13.862;2022-10-17T12:20:56;2.15;;;1.95;;
18046;SDS011;9148;51.454;13.862;2022-10-17T12:23:28;3.80;;;2.25;;
18046;SDS011;9148;51.454;13.862;2022-10-17T12:25:56;3.10;;;2.47;;
18046;SDS011;9148;51.454;13.862;2022-10-17T12:44:45;4.43;;;2.97;;
18046;SDS011;9148;51.454;13.862;2022-10-17T12:46:55;3.55;;;2.75;;
18046;SDS011;9148;51.454;13.862;2022-10-17T13:00:31;4.72;;;2.97;;
18046;SDS011;9148;51.454;13.862;2022-10-17T13:03:16;6.50;;;3.75;;
18046;SDS011;9148;51.454;13.862;2022-10-17T13:05:56;4.53;;;3.00;;
18046;SDS011;9148;51.454;13.862;2022-10-17T13:08:27;3.08;;;2.75;;
18046;SDS011;9148;51.454;13.862;2022-10-17T13:10:59;3.00;;;2.60;;
18046;SDS011;9148;51.454;13.862;2022-10-17T13:16:29;6.90;;;2.63;;
18046;SDS011;9148;51.454;13.862;2022-10-17T13:19:14;5.00;;;3.50;;
18046;SDS011;9148;51.454;13.862;2022-10-17T13:21:56;4.20;;;3.33;;
18046;SDS011;9148;51.454;13.862;2022-10-17T13:24:32;4.65;;;3.60;;
18046;SDS011;9148;51.454;13.862;2022-10-17T13:27:01;4.40;;;2.90;;
18046;SDS011;9148;51.454;13.862;2022-10-17T13:29:29;7.93;;;3.60;;
18046;SDS011;9148;51.454;13.862;2022-10-17T13:32:04;5.63;;;3.83;;
18046;SDS011;9148;51.454;13.862;2022-10-17T13:34:30;6.22;;;3.55;;
18046;SDS011;9148;51.454;13.862;2022-10-17T13:37:00;6.30;;;3.47;;
18046;SDS011;9148;51.454;13.862;2022-10-17T13:39:33;9.73;;;3.85;;
18046;SDS011;9148;51.454;13.862;2022-10-17T13:42:03;4.65;;;3.00;;
18046;SDS011;9148;51.454;13.862;2022-10-17T13:44:33;5.28;;;4.40;;
18046;SDS011;9148;51.454;13.862;2022-10-17T13:47:19;5.13;;;3.35;;
18046;SDS011;9148;51.454;13.862;2022-10-17T13:49:59;8.68;;;4.13;;
18046;SDS011;9148;51.454;13.862;2022-10-17T13:52:26;5.25;;;3.55;;
18046;SDS011;9148;51.454;13.862;2022-10-17T13:54:53;4.20;;;3.50;;
18046;SDS011;9148;51.454;13.862;2022-10-17T13:57:30;5.53;;;3.92;;
18046;SDS011;9148;51.454;13.862;2022-10-17T14:00:03;7.13;;;4.18;;
18046;SDS011;9148;51.454;13.862;2022-10-17T14:02:44;7.68;;;5.00;;
18046;SDS011;9148;51.454;13.862;2022-10-17T14:05:12;7.68;;;4.38;;
18046;SDS011;9148;51.454;13.862;2022-10-17T14:10:25;5.50;;;3.75;;
18046;SDS011;9148;51.454;13.862;2022-10-17T14:12:58;5.75;;;4.57;;
18046;SDS011;9148;51.454;13.862;2022-10-17T14:15:29;9.77;;;4.68;;
18046;SDS011;9148;51.454;13.862;2022-10-17T14:17:59;6.85;;;3.88;;
18046;SDS011;9148;51.454;13.862;2022-10-17T14:20:28;5.50;;;4.13;;
18046;SDS011;9148;51.454;13.862;2022-10-17T14:22:55;6.28;;;4.45;;
18046;SDS011;9148;51.454;13.862;2022-10-17T14:25:35;5.07;;;4.55;;
18046;SDS011;9148;51.454;13.862;2022-10-17T14:30:37;6.13;;;3.50;;
18046;SDS011;9148;51.454;13.862;2022-10-17T14:33:06;6.60;;;4.22;;
18046;SDS011;9148;51.454;13.862;2022-10-17T14:35:39;6.65;;;4.57;;
18046;SDS011;9148;51.454;13.862;2022-10-17T14:38:15;8.65;;;4.28;;
18046;SDS011;9148;51.454;13.862;2022-10-17T14:40:48;7.03;;;4.75;;
18046;SDS011;9148;51.454;13.862;2022-10-17T14:43:29;6.18;;;3.40;;
18046;SDS011;9148;51.454;13.862;2022-10-17T14:45:57;6.00;;;3.65;;
18046;SDS011;9148;51.454;13.862;2022-10-17T14:48:24;8.65;;;5.00;;
18046;SDS011;9148;51.454;13.862;2022-10-17T14:51:08;5.78;;;3.92;;
18046;SDS011;9148;51.454;13.862;2022-10-17T14:53:42;5.65;;;3.60;;
18046;SDS011;9148;51.454;13.862;2022-10-17T14:56:32;4.47;;;3.65;;
18046;SDS011;9148;51.454;13.862;2022-10-17T14:59:02;4.60;;;3.65;;
18046;SDS011;9148;51.454;13.862;2022-10-17T15:01:29;5.63;;;3.45;;
18046;SDS011;9148;51.454;13.862;2022-10-17T15:03:56;4.97;;;4.05;;
18046;SDS011;9148;51.454;13.862;2022-10-17T15:06:23;4.72;;;4.15;;
18046;SDS011;9148;51.454;13.862;2022-10-17T15:08:58;7.38;;;4.57;;
18046;SDS011;9148;51.454;13.862;2022-10-17T15:11:24;4.28;;;3.88;;
18046;SDS011;9148;51.454;13.862;2022-10-17T15:13:50;6.47;;;4.45;;
18046;SDS011;9148;51.454;13.862;2022-10-17T15:16:20;4.90;;;4.00;;
18046;SDS011;9148;51.454;13.862;2022-10-17T15:18:48;5.63;;;4.28;;
18046;SDS011;9148;51.454;13.862;2022-10-17T15:21:15;7.57;;;3.92;;
18046;SDS011;9148;51.454;13.862;2022-10-17T15:23:44;9.35;;;4.72;;
18046;SDS011;9148;51.454;13.862;2022-10-17T15:28:47;7.78;;;5.13;;
18046;SDS011;9148;51.454;13.862;2022-10-17T15:31:15;6.35;;;4.13;;
18046;SDS011;9148;51.454;13.862;2022-10-17T15:33:43;5.43;;;4.88;;
18046;SDS011;9148;51.454;13.862;2022-10-17T15:38:51;6.28;;;4.75;;
18046;SDS011;9148;51.454;13.862;2022-10-17T15:41:20;7.10;;;4.15;;
18046;SDS011;9148;51.454;13.862;2022-10-17T15:43:46;8.27;;;4.68;;
18046;SDS011;9148;51.454;13.862;2022-10-17T15:46:16;11.38;;;4.00;;
18046;SDS011;9148;51.454;13.862;2022-10-17T15:48:48;7.00;;;4.78;;
18046;SDS011;9148;51.454;13.862;2022-10-17T15:51:14;7.30;;;5.20;;
18046;SDS011;9148;51.454;13.862;2022-10-17T15:53:41;7.47;;;4.43;;
18046;SDS011;9148;51.454;13.862;2022-10-17T15:56:07;6.85;;;5.10;;
18046;SDS011;9148;51.454;13.862;2022-10-17T15:58:43;8.73;;;4.88;;
18046;SDS011;9148;51.454;13.862;2022-10-17T16:01:10;9.55;;;5.63;;
18046;SDS011;9148;51.454;13.862;2022-10-17T16:03:46;8.35;;;5.57;;
18046;SDS011;9148;51.454;13.862;2022-10-17T16:06:14;5.82;;;5.20;;
18046;SDS011;9148;51.454;13.862;2022-10-17T16:08:41;6.80;;;4.55;;
18046;SDS011;9148;51.454;13.862;2022-10-17T16:11:09;5.78;;;4.72;;
18046;SDS011;9148;51.454;13.862;2022-10-17T16:13:54;8.20;;;5.95;;
18046;SDS011;9148;51.454;13.862;2022-10-17T16:16:23;8.52;;;5.32;;
18046;SDS011;9148;51.454;13.862;2022-10-17T16:18:49;6.70;;;4.78;;
18046;SDS011;9148;51.454;13.862;2022-10-17T16:21:15;9.30;;;5.30;;
18046;SDS011;9148;51.454;13.862;2022-10-17T16:23:41;5.65;;;5.10;;
18046;SDS011;9148;51.454;13.862;2022-10-17T16:26:08;6.45;;;5.35;;
18046;SDS011;9148;51.454;13.862;2022-10-17T16:28:34;7.35;;;5.45;;
18046;SDS011;9148;51.454;13.862;2022-10-17T16:31:00;6.68;;;5.57;;
18046;SDS011;9148;51.454;13.862;2022-10-17T16:33:26;8.13;;;5.72;;
18046;SDS011;9148;51.454;13.862;2022-10-17T16:35:51;11.15;;;6.40;;
18046;SDS011;9148;51.454;13.862;2022-10-17T16:38:17;6.53;;;5.35;;
18046;SDS011;9148;51.454;13.862;2022-10-17T16:40:43;8.75;;;5.60;;
18046;SDS011;9148;51.454;13.862;2022-10-17T16:43:12;8.93;;;6.03;;
18046;SDS011;9148;51.454;13.862;2022-10-17T16:45:38;9.20;;;5.05;;
18046;SDS011;9148;51.454;13.862;2022-10-17T16:48:04;7.18;;;5.85;;
18046;SDS011;9148;51.454;13.862;2022-10-17T16:50:30;6.97;;;5.40;;
18046;SDS011;9148;51.454;13.862;2022-10-17T16:52:59;8.68;;;6.50;;
18046;SDS011;9148;51.454;13.862;2022-10-17T16:55:25;10.15;;;5.55;;
18046;SDS011;9148;51.454;13.862;2022-10-17T16:57:51;6.43;;;5.78;;
18046;SDS011;9148;51.454;13.862;2022-10-17T17:00:17;10.77;;;6.00;;
18046;SDS011;9148;51.454;13.862;2022-10-17T17:02:43;7.68;;;5.78;;
18046;SDS011;9148;51.454;13.862;2022-10-17T17:05:11;12.15;;;5.65;;
18046;SDS011;9148;51.454;13.862;2022-10-17T17:07:37;13.02;;;7.07;;
18046;SDS011;9148;51.454;13.862;2022-10-17T17:10:03;10.85;;;6.78;;